Time;durP1;ratioP1;P1;durP2;ratioP2;P2;SDS_P1;SDS_P2;PMS_P1;PMS_P2;Temp;Humidity;BMP_temperature;BMP_pressure;BME280_temperature;BME280_humidity;BME280_pressure;Samples;Min_cycle;Max_cycle;Signal;HPM_P1;HPM_P2
2022/04/04 00:00:08;;;;;;;13.80;9.10;;;20.10;99.90;;;;;;5034849;28;20033;-53
2022/04/04 00:02:34;;;;;;;13.30;9.00;;;20.00;99.90;;;;;;5034208;28;20056;-53
2022/04/04 00:05:01;;;;;;;14.35;8.57;;;20.00;99.90;;;;;;5034354;28;20461;-53
2022/04/04 00:07:27;;;;;;;15.23;8.82;;;20.00;99.90;;;;;;5034267;28;20107;-53
2022/04/04 00:22:00;;;;;;;11.63;7.53;;;20.00;99.90;;;;;;5033814;28;20109;-52
2022/04/04 00:24:25;;;;;;;13.30;8.35;;;20.00;99.90;;;;;;5034024;28;20033;-52
2022/04/04 00:26:51;;;;;;;13.93;7.60;;;20.00;99.90;;;;;;5033822;28;20037;-53
2022/04/04 00:29:18;;;;;;;11.55;7.15;;;20.00;99.90;;;;;;5033797;28;20099;-54
2022/04/04 00:31:44;;;;;;;11.73;7.38;;;20.00;99.90;;;;;;5033740;28;20025;-55
2022/04/04 00:34:10;;;;;;;12.73;7.78;;;20.00;99.90;;;;;;5033745;28;20029;-53
2022/04/04 00:36:36;;;;;;;12.32;7.32;;;19.90;99.90;;;;;;5033827;28;20054;-53
2022/04/04 00:39:02;;;;;;;12.05;7.07;;;19.90;99.90;;;;;;5032523;28;20037;-54
2022/04/04 00:41:28;;;;;;;13.75;7.97;;;19.90;99.90;;;;;;5033406;28;20045;-53
2022/04/04 00:43:54;;;;;;;13.15;7.35;;;19.90;99.90;;;;;;5032759;28;20042;-54
2022/04/04 00:46:20;;;;;;;10.32;6.72;;;19.90;99.90;;;;;;5033400;28;20500;-54
2022/04/04 00:48:47;;;;;;;12.68;7.07;;;19.90;99.90;;;;;;5033544;28;20477;-55
2022/04/04 01:03:19;;;;;;;12.98;7.43;;;19.90;99.90;;;;;;4564697;28;20068;-54
2022/04/04 01:05:46;;;;;;;12.45;6.75;;;19.90;99.90;;;;;;5033083;28;20391;-55
2022/04/04 01:08:13;;;;;;;11.77;6.90;;;19.90;99.90;;;;;;5033152;28;20469;-54
2022/04/04 01:10:43;;;;;;;10.68;6.70;;;19.90;99.90;;;;;;5033039;28;20109;-54
2022/04/04 01:13:10;;;;;;;11.10;6.78;;;19.80;99.90;;;;;;5032979;28;20060;-53
2022/04/04 01:15:36;;;;;;;12.18;7.35;;;19.90;99.90;;;;;;5032999;28;20028;-54
2022/04/04 01:18:07;;;;;;;15.30;7.63;;;19.80;99.90;;;;;;5032980;28;20041;-55
2022/04/04 01:20:34;;;;;;;13.35;7.03;;;19.80;99.90;;;;;;5032983;28;20026;-54
2022/04/04 01:23:00;;;;;;;13.27;6.10;;;19.80;99.90;;;;;;5032914;28;20079;-54
2022/04/04 01:25:29;;;;;;;14.13;7.65;;;19.80;99.90;;;;;;5032727;28;20072;-54
2022/04/04 01:27:55;;;;;;;12.68;7.43;;;19.80;99.90;;;;;;5032665;28;20040;-54
2022/04/04 01:30:25;;;;;;;12.13;7.00;;;19.80;99.90;;;;;;5032732;28;20026;-55
2022/04/04 01:32:51;;;;;;;10.13;6.70;;;19.80;99.90;;;;;;5032545;28;20096;-54
2022/04/04 01:35:18;;;;;;;13.50;6.93;;;19.80;99.90;;;;;;5032607;28;20017;-54
2022/04/04 01:37:44;;;;;;;9.77;5.57;;;19.80;99.90;;;;;;5032447;28;20021;-55
2022/04/04 01:40:10;;;;;;;12.60;7.22;;;19.80;99.90;;;;;;5032570;28;20026;-55
2022/04/04 01:42:37;;;;;;;13.38;7.03;;;19.70;99.90;;;;;;5032640;28;20018;-55
2022/04/04 01:45:07;;;;;;;11.87;6.33;;;19.70;99.90;;;;;;5032357;28;20109;-54
2022/04/04 01:47:34;;;;;;;13.57;6.80;;;19.70;99.90;;;;;;5032310;28;20297;-56
2022/04/04 01:50:00;;;;;;;12.05;6.68;;;19.70;99.90;;;;;;5032133;28;20052;-54
2022/04/04 01:52:26;;;;;;;14.02;7.22;;;19.70;99.90;;;;;;5032402;28;20030;-55
2022/04/04 01:54:52;;;;;;;12.25;6.68;;;19.70;99.90;;;;;;5032304;28;20377;-55
2022/04/04 01:57:18;;;;;;;16.17;6.50;;;19.70;99.90;;;;;;5031917;28;20033;-54
2022/04/04 01:59:44;;;;;;;10.88;6.30;;;19.70;99.90;;;;;;5044027;23;20057;-70
2022/04/04 02:02:10;;;;;;;13.80;6.97;;;19.70;99.90;;;;;;5031990;28;20032;-70
2022/04/04 02:04:36;;;;;;;9.93;6.15;;;19.70;99.90;;;;;;5032196;28;20093;-70
2022/04/04 02:07:02;;;;;;;13.88;6.80;;;19.70;99.90;;;;;;5032116;28;20432;-70
2022/04/04 02:09:28;;;;;;;12.57;6.87;;;19.70;99.90;;;;;;5031972;28;20097;-71
2022/04/04 02:11:54;;;;;;;12.43;6.38;;;19.60;99.90;;;;;;5031922;28;20109;-72
2022/04/04 02:14:20;;;;;;;11.73;6.07;;;19.60;99.90;;;;;;5032114;28;20561;-73
2022/04/04 02:16:46;;;;;;;11.77;6.70;;;19.70;99.90;;;;;;5032061;28;20029;-73
2022/04/04 02:19:12;;;;;;;11.15;6.25;;;19.70;99.90;;;;;;5031767;28;20037;-69
2022/04/04 02:21:38;;;;;;;11.93;6.78;;;19.60;99.90;;;;;;5032104;28;20052;-68
2022/04/04 02:24:04;;;;;;;9.15;5.70;;;19.60;99.90;;;;;;5031646;28;20057;-71
2022/04/04 02:26:30;;;;;;;12.93;6.45;;;19.60;99.90;;;;;;5031487;28;20018;-70
2022/04/04 02:28:56;;;;;;;10.07;6.07;;;19.60;99.90;;;;;;5031923;28;20458;-72
2022/04/04 02:31:21;;;;;;;10.38;6.05;;;19.60;99.90;;;;;;5030364;28;20036;-70
2022/04/04 02:33:47;;;;;;;11.60;6.25;;;19.60;99.90;;;;;;5030340;28;20525;-69
2022/04/04 02:36:13;;;;;;;11.07;6.15;;;19.60;99.90;;;;;;5031484;28;20022;-69
2022/04/04 02:38:39;;;;;;;12.10;6.43;;;19.60;99.90;;;;;;5031586;28;20034;-69
2022/04/04 02:41:06;;;;;;;12.07;5.80;;;19.60;99.90;;;;;;5031522;28;20030;-68
2022/04/04 02:43:32;;;;;;;11.13;6.30;;;19.60;99.90;;;;;;5031537;28;20037;-69
2022/04/04 02:45:58;;;;;;;10.32;6.53;;;19.60;99.90;;;;;;5031391;28;20091;-69
2022/04/04 02:48:23;;;;;;;9.52;6.30;;;19.60;99.90;;;;;;5031396;28;20068;-68
2022/04/04 02:50:50;;;;;;;10.88;6.50;;;19.60;99.90;;;;;;5030239;28;20021;-68
2022/04/04 02:53:16;;;;;;;13.43;7.03;;;19.60;99.90;;;;;;5031353;28;20028;-69
2022/04/04 02:58:27;;;;;;;11.95;6.38;;;19.50;99.90;;;;;;5031272;28;20040;-68
2022/04/04 03:00:53;;;;;;;11.05;6.70;;;19.60;99.90;;;;;;5042889;22;20064;-55
2022/04/04 03:03:19;;;;;;;11.85;7.25;;;19.50;99.90;;;;;;5031178;28;20425;-54
2022/04/04 03:05:46;;;;;;;13.68;7.30;;;19.50;99.90;;;;;;5031352;28;20053;-55
2022/04/04 03:08:12;;;;;;;12.57;7.68;;;19.50;99.90;;;;;;5033440;28;20034;-56
2022/04/04 03:10:38;;;;;;;13.75;7.03;;;19.60;99.90;;;;;;5035588;28;20116;-56
2022/04/04 03:13:05;;;;;;;12.80;6.70;;;19.50;99.90;;;;;;5034027;28;20032;-56
2022/04/04 03:15:36;;;;;;;12.80;6.55;;;19.50;99.90;;;;;;5035117;28;20064;-55
2022/04/04 03:18:03;;;;;;;10.23;6.13;;;19.50;99.90;;;;;;5034935;28;20034;-56
2022/04/04 03:20:31;;;;;;;10.20;6.28;;;19.50;99.90;;;;;;5035151;28;20029;-55
2022/04/04 03:22:58;;;;;;;11.55;6.75;;;19.50;99.90;;;;;;5035105;28;20432;-57
2022/04/04 03:25:24;;;;;;;12.47;7.07;;;19.40;99.90;;;;;;5034852;28;20171;-55
2022/04/04 03:27:51;;;;;;;13.27;6.65;;;19.50;99.90;;;;;;5035002;28;20026;-56
2022/04/04 03:30:19;;;;;;;11.40;5.68;;;19.50;99.90;;;;;;5034934;28;20033;-54
2022/04/04 03:32:49;;;;;;;10.05;5.88;;;19.50;99.90;;;;;;5033598;28;20535;-56
2022/04/04 03:35:16;;;;;;;10.77;5.60;;;19.50;99.90;;;;;;5034782;28;20033;-55
2022/04/04 03:37:44;;;;;;;9.98;6.00;;;19.50;99.90;;;;;;5034934;28;20069;-56
2022/04/04 03:40:14;;;;;;;11.95;6.45;;;19.50;99.90;;;;;;5034934;28;20021;-56
2022/04/04 03:42:45;;;;;;;11.35;6.18;;;19.50;99.90;;;;;;5034790;28;20033;-56
2022/04/04 03:45:12;;;;;;;9.95;5.70;;;19.40;99.90;;;;;;5034842;28;20152;-55
2022/04/04 03:47:39;;;;;;;12.35;6.22;;;19.40;99.90;;;;;;5034662;28;20067;-57
2022/04/04 03:50:06;;;;;;;10.73;6.23;;;19.40;99.90;;;;;;5034680;28;20152;-55
2022/04/04 03:52:32;;;;;;;13.40;6.57;;;19.40;99.90;;;;;;5034606;28;20250;-56
2022/04/04 03:54:57;;;;;;;10.32;6.10;;;19.40;99.90;;;;;;5034545;28;20028;-56
2022/04/04 03:57:23;;;;;;;9.30;5.53;;;19.40;99.90;;;;;;5034208;28;20073;-54
2022/04/04 03:59:49;;;;;;;10.85;5.60;;;19.40;99.90;;;;;;5046261;23;20050;-69
2022/04/04 04:02:16;;;;;;;10.55;5.53;;;19.40;99.90;;;;;;5035134;28;20034;-69
2022/04/04 04:04:43;;;;;;;11.85;5.68;;;19.40;99.90;;;;;;5034555;28;20359;-67
2022/04/04 04:07:14;;;;;;;9.13;5.37;;;19.40;99.90;;;;;;5034353;28;20048;-66
2022/04/04 04:09:40;;;;;;;8.95;5.32;;;19.40;99.90;;;;;;5034223;28;20069;-66
2022/04/04 04:12:06;;;;;;;9.82;5.45;;;19.40;99.90;;;;;;5034149;28;20579;-66
2022/04/04 04:14:32;;;;;;;9.55;5.78;;;19.40;99.90;;;;;;5034109;28;20038;-66
2022/04/04 04:16:58;;;;;;;9.00;5.53;;;19.40;99.90;;;;;;5034123;28;20022;-67
2022/04/04 04:22:08;;;;;;;9.57;5.40;;;19.40;99.90;;;;;;5033923;28;20091;-66
2022/04/04 04:24:34;;;;;;;9.00;5.70;;;19.40;99.90;;;;;;5033977;28;20432;-66
2022/04/04 04:27:00;;;;;;;12.32;5.80;;;19.40;99.90;;;;;;5033911;28;20075;-65
2022/04/04 04:29:25;;;;;;;6.80;4.80;;;19.40;99.90;;;;;;5032538;28;20026;-66
2022/04/04 04:31:52;;;;;;;10.50;5.22;;;19.40;99.90;;;;;;5033944;28;20025;-66
2022/04/04 04:34:17;;;;;;;10.80;5.32;;;19.40;99.90;;;;;;5033860;28;20086;-66
2022/04/04 04:36:43;;;;;;;9.18;5.32;;;19.40;99.90;;;;;;5034164;28;20460;-68
2022/04/04 04:39:10;;;;;;;8.40;5.22;;;19.40;99.90;;;;;;5033545;28;20040;-67
2022/04/04 04:41:35;;;;;;;6.93;4.78;;;19.40;99.90;;;;;;5033666;28;20033;-69
2022/04/04 04:44:05;;;;;;;8.38;4.72;;;19.40;99.90;;;;;;5033657;28;20159;-66
2022/04/04 04:46:31;;;;;;;9.07;5.43;;;19.40;99.90;;;;;;5033572;28;20018;-65
2022/04/04 04:48:58;;;;;;;8.13;4.75;;;19.40;99.90;;;;;;5033470;28;20028;-65
2022/04/04 04:51:24;;;;;;;7.95;5.05;;;19.30;99.90;;;;;;5032149;28;20028;-65
2022/04/04 04:53:50;;;;;;;7.38;4.70;;;19.40;99.90;;;;;;5033498;28;20014;-65
2022/04/04 04:56:16;;;;;;;7.80;4.82;;;19.30;99.90;;;;;;5033535;28;20017;-72
2022/04/04 04:58:41;;;;;;;9.07;4.93;;;19.40;99.90;;;;;;5033222;28;20120;-72
2022/04/04 05:01:20;;;;;;;9.35;5.32;;;19.30;99.90;;;;;;5033246;28;20073;-73
2022/04/04 05:03:46;;;;;;;8.00;4.95;;;19.40;99.90;;;;;;5032221;28;20100;-72
2022/04/04 05:06:11;;;;;;;8.07;5.28;;;19.40;99.90;;;;;;5031827;28;20129;-72
2022/04/04 05:08:37;;;;;;;6.30;4.20;;;19.30;99.90;;;;;;5031929;28;20116;-72
2022/04/04 05:11:03;;;;;;;8.18;5.20;;;19.40;99.90;;;;;;5033140;28;20030;-70
2022/04/04 05:13:29;;;;;;;7.97;4.50;;;19.40;99.90;;;;;;5033047;28;20030;-71
2022/04/04 05:15:55;;;;;;;8.57;4.57;;;19.30;99.90;;;;;;5033061;28;20490;-72
2022/04/04 05:18:21;;;;;;;9.27;5.15;;;19.30;99.90;;;;;;5033054;28;20029;-73
2022/04/04 05:20:47;;;;;;;7.22;4.47;;;19.30;99.90;;;;;;5031893;28;20473;-72
2022/04/04 05:23:13;;;;;;;5.82;3.85;;;19.30;99.90;;;;;;5031682;28;20037;-72
2022/04/04 05:25:40;;;;;;;9.07;4.13;;;19.30;99.90;;;;;;5032827;28;20024;-67
2022/04/04 05:28:07;;;;;;;7.82;5.13;;;19.40;99.90;;;;;;5032976;28;20436;-68
2022/04/04 05:30:34;;;;;;;8.15;4.90;;;19.30;99.90;;;;;;5032373;28;20071;-68
2022/04/04 05:33:00;;;;;;;9.30;5.00;;;19.40;99.90;;;;;;5032812;28;20377;-73
2022/04/04 05:35:26;;;;;;;7.63;4.15;;;19.40;99.90;;;;;;5032671;28;20075;-71
2022/04/04 05:37:55;;;;;;;6.55;4.50;;;19.40;99.90;;;;;;5032526;28;20037;-71
2022/04/04 05:40:23;;;;;;;6.75;4.25;;;19.30;99.90;;;;;;5032648;28;20026;-70
2022/04/04 05:42:49;;;;;;;;;;;19.30;99.90;;;;;;5033084;28;20057;-67
2022/04/04 05:45:15;;;;;;;6.60;3.70;;;19.30;99.90;;;;;;5032435;28;19932;-65
2022/04/04 05:47:43;;;;;;;7.57;4.10;;;19.40;99.90;;;;;;5031269;28;20029;-66
2022/04/04 05:50:09;;;;;;;7.78;4.25;;;19.30;99.90;;;;;;5031034;28;20087;-66
2022/04/04 05:52:36;;;;;;;8.85;4.55;;;19.40;99.90;;;;;;5032298;28;20021;-70
2022/04/04 05:55:03;;;;;;;6.80;4.00;;;19.40;99.90;;;;;;5032257;28;20076;-66
2022/04/04 05:57:32;;;;;;;8.40;4.35;;;19.30;99.90;;;;;;5032035;28;20033;-67
2022/04/04 05:59:58;;;;;;;8.10;4.28;;;19.40;99.90;;;;;;5031956;28;20095;-70
2022/04/04 06:02:26;;;;;;;6.82;4.30;;;19.30;99.90;;;;;;5030975;28;20022;-69
2022/04/04 06:04:53;;;;;;;8.90;4.60;;;19.40;99.90;;;;;;5032449;28;20045;-62
2022/04/04 06:07:19;;;;;;;8.82;4.40;;;19.40;99.90;;;;;;5030980;28;20063;-61
2022/04/04 06:09:45;;;;;;;8.80;4.40;;;19.40;99.90;;;;;;5032154;28;20377;-64
2022/04/04 06:12:12;;;;;;;6.38;3.70;;;19.40;99.90;;;;;;5030726;28;20029;-72
2022/04/04 06:14:37;;;;;;;6.30;3.75;;;19.30;99.90;;;;;;5030666;28;20064;-69
2022/04/04 06:17:07;;;;;;;8.02;4.75;;;19.40;99.90;;;;;;5032058;28;20013;-67
2022/04/04 06:19:34;;;;;;;7.10;4.03;;;19.30;99.90;;;;;;5031801;28;20386;-65
2022/04/04 06:22:00;;;;;;;7.63;4.57;;;19.30;99.90;;;;;;5031809;28;20470;-64
2022/04/04 06:24:28;;;;;;;10.07;4.18;;;19.30;99.90;;;;;;5030352;28;20065;-72
2022/04/04 06:26:54;;;;;;;10.43;5.07;;;19.40;99.90;;;;;;5031846;28;20017;-73
2022/04/04 06:29:19;;;;;;;7.13;3.92;;;19.40;99.90;;;;;;5031975;28;20076;-73
2022/04/04 06:31:46;;;;;;;7.70;4.25;;;19.30;99.90;;;;;;5031681;28;20032;-73
2022/04/04 06:34:12;;;;;;;11.35;4.72;;;19.30;99.90;;;;;;5031680;28;20025;-69
2022/04/04 06:36:38;;;;;;;6.97;4.78;;;19.30;99.90;;;;;;5031494;28;20040;-69
2022/04/04 06:39:05;;;;;;;7.10;5.00;;;19.30;99.90;;;;;;5031509;28;20116;-68
2022/04/04 06:41:31;;;;;;;5.97;4.17;;;19.30;99.90;;;;;;5031159;28;20022;-68
2022/04/04 06:43:58;;;;;;;10.98;5.15;;;19.40;99.90;;;;;;5030917;28;20263;-70
2022/04/04 06:46:25;;;;;;;8.48;5.22;;;19.40;99.90;;;;;;5031419;28;20026;-69
2022/04/04 06:48:51;;;;;;;9.15;4.47;;;19.40;99.90;;;;;;5031469;28;20038;-74
2022/04/04 06:51:20;;;;;;;8.60;4.40;;;19.40;99.90;;;;;;5030119;28;20034;-73
2022/04/04 06:53:46;;;;;;;7.55;3.90;;;19.40;99.90;;;;;;5031321;28;20029;-74
2022/04/04 06:56:13;;;;;;;9.18;5.07;;;19.40;99.90;;;;;;5031356;28;20542;-71
2022/04/04 06:58:39;;;;;;;9.53;5.37;;;19.40;99.90;;;;;;5029974;28;20040;-69
2022/04/04 07:01:07;;;;;;;9.27;5.18;;;19.40;99.90;;;;;;5031223;28;20049;-70
2022/04/04 07:03:32;;;;;;;7.97;4.53;;;19.30;99.90;;;;;;5029853;28;20041;-70
2022/04/04 07:05:59;;;;;;;9.07;5.75;;;19.40;99.90;;;;;;5031277;28;20026;-69
2022/04/04 07:08:24;;;;;;;6.53;4.65;;;19.40;99.90;;;;;;5031417;28;20037;-70
2022/04/04 07:10:51;;;;;;;9.82;4.90;;;19.40;99.90;;;;;;5031175;28;20018;-69
2022/04/04 07:13:17;;;;;;;7.60;4.75;;;19.40;99.90;;;;;;5031270;28;20028;-68
2022/04/04 07:15:43;;;;;;;8.05;4.78;;;19.40;99.90;;;;;;5031052;28;20022;-69
2022/04/04 07:18:10;;;;;;;9.05;4.70;;;19.40;99.90;;;;;;5031040;28;20496;-69
2022/04/04 07:20:36;;;;;;;8.77;4.97;;;19.40;99.90;;;;;;5031008;28;20018;-68
2022/04/04 07:23:02;;;;;;;8.02;4.57;;;19.40;99.90;;;;;;5031147;28;20029;-68
2022/04/04 07:25:30;;;;;;;8.93;4.72;;;19.40;99.90;;;;;;5029675;28;20044;-68
2022/04/04 07:27:56;;;;;;;12.38;5.68;;;19.40;99.90;;;;;;5030910;28;20037;-68
2022/04/04 07:30:23;;;;;;;9.73;4.72;;;19.40;99.90;;;;;;5031138;28;20021;-68
2022/04/04 07:32:50;;;;;;;8.25;4.93;;;19.40;99.90;;;;;;5030793;28;20539;-68
2022/04/04 07:35:18;;;;;;;7.70;5.03;;;19.40;99.90;;;;;;5030965;28;20021;-68
2022/04/04 07:37:46;;;;;;;8.05;5.00;;;19.40;99.90;;;;;;5030894;28;20034;-67
2022/04/04 07:40:14;;;;;;;9.38;4.50;;;19.40;99.90;;;;;;5029506;28;20452;-69
2022/04/04 07:42:42;;;;;;;8.52;4.65;;;19.40;99.90;;;;;;5030721;28;20045;-71
2022/04/04 07:45:10;;;;;;;7.65;4.35;;;19.40;99.90;;;;;;5030771;28;20047;-71
2022/04/04 07:47:37;;;;;;;9.30;4.88;;;19.40;99.90;;;;;;5030673;28;20029;-68
2022/04/04 07:50:04;;;;;;;9.13;5.18;;;19.40;99.90;;;;;;5030874;28;20104;-68
2022/04/04 07:52:30;;;;;;;9.55;4.95;;;19.40;99.90;;;;;;5030706;28;20022;-68
2022/04/04 07:54:56;;;;;;;8.85;5.32;;;19.40;99.90;;;;;;5034563;28;20108;-68
2022/04/04 07:57:22;;;;;;;12.30;5.85;;;19.40;99.90;;;;;;5032999;28;20060;-68
2022/04/04 07:59:50;;;;;;;9.07;5.05;;;19.40;99.90;;;;;;5032920;28;20057;-68
2022/04/04 08:02:17;;;;;;;8.90;4.50;;;19.40;99.90;;;;;;5034541;28;20014;-68
2022/04/04 08:04:43;;;;;;;8.60;5.10;;;19.40;99.90;;;;;;5034306;28;20393;-69
2022/04/04 08:07:09;;;;;;;8.43;4.95;;;19.40;99.90;;;;;;5034143;28;20022;-67
2022/04/04 08:09:34;;;;;;;9.18;4.95;;;19.40;99.90;;;;;;5034314;28;20109;-67
2022/04/04 08:12:00;;;;;;;9.57;4.70;;;19.40;99.90;;;;;;5034574;28;20022;-66
2022/04/04 08:14:26;;;;;;;7.32;5.07;;;19.40;99.90;;;;;;5034562;28;20104;-66
2022/04/04 08:16:52;;;;;;;9.32;4.93;;;19.40;99.90;;;;;;5034195;28;20389;-69
2022/04/04 08:19:18;;;;;;;7.85;4.60;;;19.40;99.90;;;;;;5034208;28;20538;-68
2022/04/04 08:21:45;;;;;;;11.00;5.07;;;19.40;99.90;;;;;;5034261;28;20029;-68
2022/04/04 08:24:14;;;;;;;7.82;4.55;;;19.50;99.90;;;;;;5034056;28;20026;-69
2022/04/04 08:26:40;;;;;;;9.60;4.47;;;19.50;99.90;;;;;;5032589;28;20502;-69
2022/04/04 08:29:09;;;;;;;9.48;4.95;;;19.40;99.90;;;;;;5033872;28;20018;-68
2022/04/04 08:31:35;;;;;;;7.15;4.40;;;19.50;99.90;;;;;;5032715;28;20072;-69
2022/04/04 08:34:02;;;;;;;8.13;4.68;;;19.40;99.90;;;;;;5032429;28;20055;-68
2022/04/04 08:36:27;;;;;;;8.93;4.47;;;19.40;99.90;;;;;;5034002;28;20053;-69
2022/04/04 08:38:53;;;;;;;9.43;4.90;;;19.40;99.90;;;;;;5033455;28;20076;-69
2022/04/04 08:41:21;;;;;;;7.60;4.20;;;19.40;99.90;;;;;;5033625;28;20025;-68
2022/04/04 08:43:51;;;;;;;10.15;4.60;;;19.50;99.90;;;;;;5033990;28;20397;-68
2022/04/04 08:46:17;;;;;;;6.95;4.50;;;19.40;99.90;;;;;;5033673;28;20488;-69
2022/04/04 08:48:44;;;;;;;8.18;4.93;;;19.40;99.90;;;;;;5033518;28;20033;-67
2022/04/04 08:51:10;;;;;;;9.10;4.82;;;19.40;99.90;;;;;;5032044;28;20022;-68
2022/04/04 08:53:39;;;;;;;8.38;4.40;;;19.40;99.90;;;;;;5033416;28;20032;-67
2022/04/04 08:56:06;;;;;;;7.95;4.25;;;19.40;99.90;;;;;;5033584;28;20490;-68
2022/04/04 08:58:32;;;;;;;8.38;4.45;;;19.40;99.90;;;;;;5033519;28;20045;-68
2022/04/04 09:00:59;;;;;;;6.25;3.63;;;19.40;99.90;;;;;;5033379;28;20045;-68
2022/04/04 09:03:29;;;;;;;5.68;4.00;;;19.40;99.90;;;;;;5033397;28;20071;-69
2022/04/04 09:06:05;;;;;;;7.03;4.13;;;19.40;99.90;;;;;;5032667;28;20045;-67
2022/04/04 09:08:44;;;;;;;6.30;3.90;;;19.40;99.90;;;;;;5033431;28;20075;-68
2022/04/04 09:11:11;;;;;;;8.88;4.35;;;19.40;99.90;;;;;;5033126;28;20033;-67
2022/04/04 09:13:37;;;;;;;9.57;4.60;;;19.40;99.90;;;;;;5033377;28;20527;-72
2022/04/04 09:16:08;;;;;;;7.18;4.30;;;19.40;99.90;;;;;;5031878;28;20025;-68
2022/04/04 09:18:37;;;;;;;9.32;4.68;;;19.40;99.90;;;;;;5031590;28;20061;-68
2022/04/04 09:21:25;;;;;;;6.45;4.00;;;19.40;99.90;;;;;;5031789;28;20120;-68
2022/04/04 09:24:07;;;;;;;6.60;4.15;;;19.40;99.90;;;;;;5031687;28;20977;-68
2022/04/04 09:26:40;;;;;;;6.13;4.00;;;19.50;99.90;;;;;;5032832;28;20067;-67
2022/04/04 09:29:12;;;;;;;6.20;4.20;;;19.50;99.90;;;;;;5031538;28;20083;-68
2022/04/04 09:31:52;;;;;;;6.07;3.72;;;19.50;99.90;;;;;;5032978;28;20037;-68
2022/04/04 09:34:19;;;;;;;8.05;4.55;;;19.50;99.90;;;;;;5031468;28;20028;-68
2022/04/04 09:36:47;;;;;;;6.15;3.85;;;19.40;99.90;;;;;;5032739;28;20025;-68
2022/04/04 09:39:14;;;;;;;6.85;4.38;;;19.50;99.90;;;;;;5032558;28;20076;-68
2022/04/04 09:41:41;;;;;;;8.73;4.07;;;19.40;99.90;;;;;;5032611;28;20026;-68
2022/04/04 09:44:14;;;;;;;7.07;3.78;;;19.40;99.90;;;;;;5032455;28;20036;-67
2022/04/04 09:46:41;;;;;;;7.90;3.92;;;19.40;99.90;;;;;;5032399;28;20120;-67
2022/04/04 09:49:15;;;;;;;7.38;4.03;;;19.40;99.90;;;;;;5032325;28;20025;-67
2022/04/04 09:51:50;;;;;;;6.03;3.60;;;19.40;99.90;;;;;;5030970;28;20036;-67
2022/04/04 09:54:23;;;;;;;6.43;3.65;;;19.40;99.90;;;;;;5032293;28;20473;-67
2022/04/04 09:56:53;;;;;;;6.22;4.10;;;19.40;99.90;;;;;;5030856;28;20033;-68
2022/04/04 09:59:19;;;;;;;6.15;3.78;;;19.40;99.90;;;;;;5032113;28;20030;-68
2022/04/04 10:01:46;;;;;;;5.72;3.45;;;19.40;99.90;;;;;;5031990;28;20049;-69
2022/04/04 10:04:13;;;;;;;5.57;3.50;;;19.40;99.90;;;;;;5030859;28;20029;-68
2022/04/04 10:06:42;;;;;;;6.97;3.75;;;19.40;99.90;;;;;;5030742;28;20030;-68
2022/04/04 10:09:09;;;;;;;6.28;3.60;;;19.40;99.90;;;;;;5031984;28;20472;-69
2022/04/04 10:11:38;;;;;;;5.60;3.73;;;19.40;99.90;;;;;;5030674;28;20057;-68
2022/04/04 10:14:04;;;;;;;5.65;3.53;;;19.40;99.90;;;;;;5031959;28;20034;-69
2022/04/04 10:16:31;;;;;;;7.32;4.03;;;19.40;99.90;;;;;;5031998;28;20603;-68
2022/04/04 10:18:58;;;;;;;6.43;4.03;;;19.40;99.90;;;;;;5031801;28;20119;-68
2022/04/04 10:21:25;;;;;;;7.72;4.15;;;19.40;99.90;;;;;;5031906;28;20025;-68
2022/04/04 10:23:56;;;;;;;5.53;3.60;;;19.40;99.90;;;;;;5031882;28;20037;-69
2022/04/04 10:26:27;;;;;;;5.07;3.65;;;19.40;99.90;;;;;;5031746;28;20025;-68
2022/04/04 10:29:07;;;;;;;6.50;3.92;;;19.40;99.90;;;;;;5031829;28;20481;-68
2022/04/04 10:31:50;;;;;;;8.20;4.28;;;19.40;99.90;;;;;;5031722;28;20553;-69
2022/04/04 10:34:21;;;;;;;9.48;4.00;;;19.40;99.90;;;;;;5031569;28;20025;-69
2022/04/04 10:37:14;;;;;;;7.55;3.50;;;19.40;99.90;;;;;;5031655;28;20580;-68
2022/04/04 10:39:49;;;;;;;5.65;3.33;;;19.40;99.90;;;;;;5028715;28;20508;-68
2022/04/04 10:42:33;;;;;;;6.13;3.97;;;19.40;99.90;;;;;;5031650;28;20160;-68
2022/04/04 10:45:11;;;;;;;8.50;3.85;;;19.40;99.90;;;;;;5031578;28;20052;-68
2022/04/04 10:47:46;;;;;;;6.03;3.67;;;19.40;99.90;;;;;;5030246;28;20064;-69
2022/04/04 10:50:23;;;;;;;5.53;3.42;;;19.40;99.90;;;;;;5031297;28;20393;-68
2022/04/04 10:52:49;;;;;;;6.32;3.25;;;19.40;99.90;;;;;;5031258;28;20026;-67
2022/04/04 10:55:27;;;;;;;7.37;3.90;;;19.40;99.90;;;;;;5031309;28;20022;-68
2022/04/04 10:58:09;;;;;;;6.05;3.45;;;19.40;99.90;;;;;;5031267;28;20336;-70
2022/04/04 11:00:53;;;;;;;7.28;3.65;;;19.40;99.90;;;;;;5031436;28;20132;-68
2022/04/04 11:03:36;;;;;;;6.15;3.45;;;19.40;99.90;;;;;;5031300;28;20124;-68
2022/04/04 11:09:15;;;;;;;6.85;3.45;;;19.40;99.90;;;;;;5031195;28;20079;-70
2022/04/04 11:11:58;;;;;;;7.07;3.92;;;19.40;99.90;;;;;;5030038;28;20021;-69
2022/04/04 11:14:27;;;;;;;6.55;3.22;;;19.40;99.90;;;;;;5029864;28;20136;-69
2022/04/04 11:17:08;;;;;;;6.38;3.83;;;19.40;99.90;;;;;;5031296;28;20488;-67
2022/04/04 11:19:47;;;;;;;4.78;3.08;;;19.40;99.90;;;;;;5031455;28;20120;-68
2022/04/04 11:22:18;;;;;;;5.78;3.03;;;19.40;99.90;;;;;;5031380;28;20462;-67
2022/04/04 11:24:56;;;;;;;8.82;4.40;;;19.40;99.90;;;;;;5031602;28;20031;-68
2022/04/04 11:27:27;;;;;;;6.85;3.15;;;19.40;99.90;;;;;;5031333;28;20339;-68
2022/04/04 11:29:53;;;;;;;5.93;3.70;;;19.40;99.90;;;;;;5034266;28;20386;-68
2022/04/04 11:32:29;;;;;;;7.13;3.78;;;19.40;99.90;;;;;;5035033;28;20033;-70
2022/04/04 11:34:59;;;;;;;6.35;3.30;;;19.40;99.90;;;;;;5035067;28;20013;-69
2022/04/04 11:37:27;;;;;;;5.32;3.13;;;19.40;99.90;;;;;;5034867;28;20168;-69
2022/04/04 11:40:03;;;;;;;5.07;3.33;;;19.40;99.90;;;;;;5034960;28;20033;-67
2022/04/04 11:42:39;;;;;;;5.50;3.10;;;19.40;99.90;;;;;;5034865;28;20083;-67
2022/04/04 11:45:05;;;;;;;6.95;3.03;;;19.40;99.90;;;;;;5033644;28;20029;-68
2022/04/04 11:47:32;;;;;;;7.20;3.63;;;19.40;99.90;;;;;;5034966;28;20018;-68
2022/04/04 11:50:01;;;;;;;4.28;3.03;;;19.40;99.90;;;;;;5034594;28;20108;-68
2022/04/04 11:52:27;;;;;;;5.53;3.28;;;19.40;99.90;;;;;;5034769;28;20024;-61
2022/04/04 11:54:53;;;;;;;5.70;3.63;;;19.50;99.90;;;;;;5034679;28;20032;-63
2022/04/04 11:57:22;;;;;;;8.07;3.83;;;19.50;99.90;;;;;;5034465;28;20522;-62
2022/04/04 11:59:50;;;;;;;6.10;3.10;;;19.40;99.90;;;;;;5034327;28;20468;-66
2022/04/04 12:02:16;;;;;;;5.72;3.10;;;19.40;99.90;;;;;;5034460;28;20018;-69
2022/04/04 12:04:43;;;;;;;6.45;3.40;;;19.50;99.90;;;;;;5034394;28;20057;-67
2022/04/04 12:07:11;;;;;;;8.25;3.67;;;19.40;99.90;;;;;;5034599;28;20097;-66
2022/04/04 12:09:38;;;;;;;7.80;3.60;;;19.40;99.90;;;;;;5033189;28;20592;-67
2022/04/04 12:12:12;;;;;;;4.35;3.28;;;19.50;99.90;;;;;;5034218;28;20470;-68
2022/04/04 12:14:43;;;;;;;8.90;4.18;;;19.50;99.90;;;;;;5034357;28;20113;-66
2022/04/04 12:17:14;;;;;;;4.45;3.03;;;19.50;99.90;;;;;;5034254;28;20029;-65
2022/04/04 12:19:50;;;;;;;10.38;4.40;;;19.50;99.90;;;;;;5016809;28;20128;-65
2022/04/04 12:25:02;;;;;;;5.95;3.05;;;19.50;99.90;;;;;;5034388;28;20251;-65
2022/04/04 12:27:28;;;;;;;6.63;3.50;;;19.50;99.90;;;;;;5034146;28;20021;-67
2022/04/04 12:30:02;;;;;;;7.55;3.88;;;19.50;99.90;;;;;;5033925;28;20064;-67
2022/04/04 12:32:33;;;;;;;6.05;3.10;;;19.50;99.90;;;;;;5033823;28;20049;-68
2022/04/04 12:35:08;;;;;;;6.32;3.60;;;19.50;99.90;;;;;;5033814;28;20033;-67
2022/04/04 12:37:42;;;;;;;8.45;3.88;;;19.50;99.90;;;;;;5033617;28;20021;-69
2022/04/04 12:40:15;;;;;;;7.07;3.72;;;19.50;99.90;;;;;;5032665;28;20029;-69
2022/04/04 12:42:42;;;;;;;8.10;3.92;;;19.50;99.90;;;;;;5033924;28;20022;-67
2022/04/04 12:45:08;;;;;;;8.20;4.03;;;19.50;99.90;;;;;;5032489;28;20033;-68
2022/04/04 12:47:34;;;;;;;6.40;3.53;;;19.50;99.90;;;;;;5033506;28;20026;-68
2022/04/04 12:50:15;;;;;;;6.43;3.55;;;19.50;99.90;;;;;;5033555;28;20108;-68
2022/04/04 12:52:57;;;;;;;4.95;3.28;;;19.50;99.90;;;;;;5032393;28;20068;-69
2022/04/04 12:55:23;;;;;;;11.02;3.63;;;19.50;99.90;;;;;;5033434;28;20022;-67
2022/04/04 12:57:48;;;;;;;6.18;3.85;;;19.50;99.90;;;;;;5033349;28;20433;-69
2022/04/04 13:00:27;;;;;;;6.57;3.65;;;19.50;99.90;;;;;;5033144;28;20073;-67
2022/04/04 13:02:53;;;;;;;6.22;3.45;;;19.50;99.90;;;;;;5033160;28;20021;-68
2022/04/04 13:05:18;;;;;;;5.63;3.38;;;19.50;99.90;;;;;;5033123;28;20486;-69
2022/04/04 13:07:48;;;;;;;6.63;3.90;;;19.50;99.90;;;;;;5031904;28;20032;-69
2022/04/04 13:10:14;;;;;;;5.82;3.70;;;19.60;99.90;;;;;;5033158;28;20029;-70
2022/04/04 13:12:41;;;;;;;6.63;4.13;;;19.50;99.90;;;;;;5033178;28;20025;-70
2022/04/04 13:15:08;;;;;;;8.85;4.30;;;19.50;99.90;;;;;;5033148;28;20036;-74
2022/04/04 13:17:41;;;;;;;7.57;4.47;;;19.50;99.90;;;;;;5033054;28;20037;-73
2022/04/04 13:20:15;;;;;;;7.68;4.28;;;19.60;99.90;;;;;;5032962;28;20242;-69
2022/04/04 13:22:44;;;;;;;9.13;5.18;;;19.60;99.90;;;;;;5033204;28;20331;-70